sensor_id;sensor_type;location;lat;lon;timestamp;temperature;humidity
19868;DHT22;10096;51.112;6.776;2023-11-21T00:02:25;10.10;1.00
19868;DHT22;10096;51.112;6.776;2023-11-21T00:04:54;10.10;1.00
19868;DHT22;10096;51.112;6.776;2023-11-21T00:07:21;10.20;1.00
19868;DHT22;10096;51.112;6.776;2023-11-21T00:09:48;10.20;1.00
19868;DHT22;10096;51.112;6.776;2023-11-21T00:12:16;10.20;1.00
19868;DHT22;10096;51.112;6.776;2023-11-21T00:14:43;10.20;1.00
19868;DHT22;10096;51.112;6.776;2023-11-21T00:17:10;10.40;1.00
19868;DHT22;10096;51.112;6.776;2023-11-21T00:19:39;10.20;1.00
19868;DHT22;10096;51.112;6.776;2023-11-21T00:22:10;10.30;1.00
19868;DHT22;10096;51.112;6.776;2023-11-21T00:24:36;10.30;1.00
19868;DHT22;10096;51.112;6.776;2023-11-21T00:27:04;10.30;1.00
19868;DHT22;10096;51.112;6.776;2023-11-21T00:29:32;10.30;1.00
19868;DHT22;10096;51.112;6.776;2023-11-21T00:32:00;10.40;1.00
19868;DHT22;10096;51.112;6.776;2023-11-21T00:34:27;10.60;1.00
19868;DHT22;10096;51.112;6.776;2023-11-21T00:36:54;10.40;1.00
19868;DHT22;10096;51.112;6.776;2023-11-21T00:39:21;10.20;1.00
19868;DHT22;10096;51.112;6.776;2023-11-21T00:41:48;10.30;99.90
19868;DHT22;10096;51.112;6.776;2023-11-21T00:44:15;10.30;1.00
19868;DHT22;10096;51.112;6.776;2023-11-21T00:46:58;10.20;1.00
19868;DHT22;10096;51.112;6.776;2023-11-21T00:49:25;10.20;1.00
19868;DHT22;10096;51.112;6.776;2023-11-21T00:51:53;10.20;1.00
19868;DHT22;10096;51.112;6.776;2023-11-21T00:54:20;10.10;1.00
19868;DHT22;10096;51.112;6.776;2023-11-21T00:56:47;10.00;1.00
19868;DHT22;10096;51.112;6.776;2023-11-21T00:59:14;9.90;1.00
19868;DHT22;10096;51.112;6.776;2023-11-21T01:01:41;9.80;1.00
19868;DHT22;10096;51.112;6.776;2023-11-21T01:04:11;9.80;1.00
19868;DHT22;10096;51.112;6.776;2023-11-21T01:06:38;9.70;1.00
19868;DHT22;10096;51.112;6.776;2023-11-21T01:09:06;9.70;1.00
19868;DHT22;10096;51.112;6.776;2023-11-21T01:11:34;9.70;30.60
19868;DHT22;10096;51.112;6.776;2023-11-21T01:14:03;9.70;99.90
19868;DHT22;10096;51.112;6.776;2023-11-21T01:16:30;9.70;99.90
19868;DHT22;10096;51.112;6.776;2023-11-21T01:18:58;9.70;99.90
19868;DHT22;10096;51.112;6.776;2023-11-21T01:21:27;9.70;94.40
19868;DHT22;10096;51.112;6.776;2023-11-21T01:23:54;9.70;23.20
19868;DHT22;10096;51.112;6.776;2023-11-21T01:26:22;9.70;1.00
19868;DHT22;10096;51.112;6.776;2023-11-21T01:28:49;9.90;1.00
19868;DHT22;10096;51.112;6.776;2023-11-21T01:31:16;9.70;1.00
19868;DHT22;10096;51.112;6.776;2023-11-21T01:33:43;9.60;7.90
19868;DHT22;10096;51.112;6.776;2023-11-21T01:36:10;9.60;33.40
19868;DHT22;10096;51.112;6.776;2023-11-21T01:38:39;9.30;99.90
19868;DHT22;10096;51.112;6.776;2023-11-21T01:41:07;9.20;99.90
19868;DHT22;10096;51.112;6.776;2023-11-21T01:43:36;9.20;99.90
19868;DHT22;10096;51.112;6.776;2023-11-21T01:46:04;9.10;99.90
19868;DHT22;10096;51.112;6.776;2023-11-21T01:48:32;9.00;99.90
19868;DHT22;10096;51.112;6.776;2023-11-21T01:51:00;9.00;1.00
19868;DHT22;10096;51.112;6.776;2023-11-21T01:53:27;8.90;1.00
19868;DHT22;10096;51.112;6.776;2023-11-21T01:55:57;8.90;1.00
19868;DHT22;10096;51.112;6.776;2023-11-21T01:58:25;9.10;1.00
19868;DHT22;10096;51.112;6.776;2023-11-21T02:00:52;9.10;99.90
19868;DHT22;10096;51.112;6.776;2023-11-21T02:03:20;9.00;99.90
19868;DHT22;10096;51.112;6.776;2023-11-21T02:05:47;9.20;1.00
19868;DHT22;10096;51.112;6.776;2023-11-21T02:08:15;9.00;99.90
19868;DHT22;10096;51.112;6.776;2023-11-21T02:10:42;8.90;99.90
19868;DHT22;10096;51.112;6.776;2023-11-21T02:13:10;8.90;99.90
19868;DHT22;10096;51.112;6.776;2023-11-21T02:15:37;9.00;29.20
19868;DHT22;10096;51.112;6.776;2023-11-21T02:18:05;8.70;88.80
19868;DHT22;10096;51.112;6.776;2023-11-21T02:20:34;8.70;90.40
19868;DHT22;10096;51.112;6.776;2023-11-21T02:23:04;8.60;99.90
19868;DHT22;10096;51.112;6.776;2023-11-21T02:25:32;8.60;99.90
19868;DHT22;10096;51.112;6.776;2023-11-21T02:28:01;8.70;99.90
19868;DHT22;10096;51.112;6.776;2023-11-21T02:30:28;8.70;1.00
19868;DHT22;10096;51.112;6.776;2023-11-21T02:32:57;8.80;99.90
19868;DHT22;10096;51.112;6.776;2023-11-21T02:35:26;8.80;99.90
19868;DHT22;10096;51.112;6.776;2023-11-21T02:37:53;9.00;1.00
19868;DHT22;10096;51.112;6.776;2023-11-21T02:40:21;8.80;1.00
19868;DHT22;10096;51.112;6.776;2023-11-21T02:42:53;8.70;9.00
19868;DHT22;10096;51.112;6.776;2023-11-21T02:45:25;9.00;1.00
19868;DHT22;10096;51.112;6.776;2023-11-21T02:47:56;9.30;1.00
19868;DHT22;10096;51.112;6.776;2023-11-21T02:50:23;9.40;99.90
19868;DHT22;10096;51.112;6.776;2023-11-21T02:52:50;9.50;99.90
19868;DHT22;10096;51.112;6.776;2023-11-21T02:55:17;9.50;99.90
19868;DHT22;10096;51.112;6.776;2023-11-21T02:57:45;9.40;1.00
19868;DHT22;10096;51.112;6.776;2023-11-21T03:00:13;9.20;94.50
19868;DHT22;10096;51.112;6.776;2023-11-21T03:02:40;9.40;99.90
19868;DHT22;10096;51.112;6.776;2023-11-21T03:05:08;9.40;1.00
19868;DHT22;10096;51.112;6.776;2023-11-21T03:07:36;9.40;1.00
19868;DHT22;10096;51.112;6.776;2023-11-21T03:10:04;9.70;85.70
19868;DHT22;10096;51.112;6.776;2023-11-21T03:12:31;9.50;60.30
19868;DHT22;10096;51.112;6.776;2023-11-21T03:14:59;9.70;1.00
19868;DHT22;10096;51.112;6.776;2023-11-21T03:17:30;9.50;1.00
19868;DHT22;10096;51.112;6.776;2023-11-21T03:19:59;9.40;1.00
19868;DHT22;10096;51.112;6.776;2023-11-21T03:22:26;9.40;1.00
19868;DHT22;10096;51.112;6.776;2023-11-21T03:24:54;9.50;1.00
19868;DHT22;10096;51.112;6.776;2023-11-21T03:27:21;9.60;1.00
19868;DHT22;10096;51.112;6.776;2023-11-21T03:29:48;9.20;1.00
19868;DHT22;10096;51.112;6.776;2023-11-21T03:32:24;9.50;1.00
19868;DHT22;10096;51.112;6.776;2023-11-21T03:34:55;9.70;1.00
19868;DHT22;10096;51.112;6.776;2023-11-21T03:37:23;9.70;1.00
19868;DHT22;10096;51.112;6.776;2023-11-21T03:39:50;9.60;1.00
19868;DHT22;10096;51.112;6.776;2023-11-21T03:42:28;9.50;1.00
19868;DHT22;10096;51.112;6.776;2023-11-21T03:45:05;9.50;1.00
19868;DHT22;10096;51.112;6.776;2023-11-21T03:47:34;9.50;80.40
19868;DHT22;10096;51.112;6.776;2023-11-21T03:50:01;9.50;1.00
19868;DHT22;10096;51.112;6.776;2023-11-21T03:52:29;9.60;1.00
19868;DHT22;10096;51.112;6.776;2023-11-21T03:54:59;9.60;1.00
19868;DHT22;10096;51.112;6.776;2023-11-21T03:57:26;9.80;1.00
19868;DHT22;10096;51.112;6.776;2023-11-21T03:59:54;9.70;1.00
19868;DHT22;10096;51.112;6.776;2023-11-21T04:02:21;9.80;1.00
19868;DHT22;10096;51.112;6.776;2023-11-21T04:04:49;9.70;1.00
19868;DHT22;10096;51.112;6.776;2023-11-21T04:07:16;9.70;1.00
19868;DHT22;10096;51.112;6.776;2023-11-21T04:09:46;9.80;1.00
19868;DHT22;10096;51.112;6.776;2023-11-21T04:12:17;9.70;1.00
19868;DHT22;10096;51.112;6.776;2023-11-21T04:14:45;9.90;1.00
19868;DHT22;10096;51.112;6.776;2023-11-21T04:17:12;9.80;1.00
19868;DHT22;10096;51.112;6.776;2023-11-21T04:19:41;9.70;1.00
19868;DHT22;10096;51.112;6.776;2023-11-21T04:22:09;9.70;1.00
19868;DHT22;10096;51.112;6.776;2023-11-21T04:24:36;9.70;1.00
19868;DHT22;10096;51.112;6.776;2023-11-21T04:27:03;9.70;1.00
19868;DHT22;10096;51.112;6.776;2023-11-21T04:29:30;9.60;1.00
19868;DHT22;10096;51.112;6.776;2023-11-21T04:31:57;9.40;99.90
19868;DHT22;10096;51.112;6.776;2023-11-21T04:34:25;9.50;1.00
19868;DHT22;10096;51.112;6.776;2023-11-21T04:36:52;9.30;1.00
19868;DHT22;10096;51.112;6.776;2023-11-21T04:39:20;9.40;1.00
19868;DHT22;10096;51.112;6.776;2023-11-21T04:41:47;9.30;1.00
19868;DHT22;10096;51.112;6.776;2023-11-21T04:44:14;9.50;7.30
19868;DHT22;10096;51.112;6.776;2023-11-21T04:46:42;9.30;1.00
19868;DHT22;10096;51.112;6.776;2023-11-21T04:49:09;9.60;1.00
19868;DHT22;10096;51.112;6.776;2023-11-21T04:51:36;9.30;1.00
19868;DHT22;10096;51.112;6.776;2023-11-21T04:54:04;9.30;1.00
19868;DHT22;10096;51.112;6.776;2023-11-21T04:56:34;9.30;99.90
19868;DHT22;10096;51.112;6.776;2023-11-21T04:59:09;9.30;99.90
19868;DHT22;10096;51.112;6.776;2023-11-21T05:01:36;9.30;99.90
19868;DHT22;10096;51.112;6.776;2023-11-21T05:04:04;9.30;99.90
19868;DHT22;10096;51.112;6.776;2023-11-21T05:06:32;9.30;99.90
19868;DHT22;10096;51.112;6.776;2023-11-21T05:09:01;9.30;99.90
19868;DHT22;10096;51.112;6.776;2023-11-21T05:11:28;9.40;99.90
19868;DHT22;10096;51.112;6.776;2023-11-21T05:13:58;9.20;99.90
19868;DHT22;10096;51.112;6.776;2023-11-21T05:16:27;9.30;99.90
19868;DHT22;10096;51.112;6.776;2023-11-21T05:18:56;9.20;99.90
19868;DHT22;10096;51.112;6.776;2023-11-21T05:21:26;9.50;99.90
19868;DHT22;10096;51.112;6.776;2023-11-21T05:23:56;9.00;99.90
19868;DHT22;10096;51.112;6.776;2023-11-21T05:26:23;9.10;99.90
19868;DHT22;10096;51.112;6.776;2023-11-21T05:28:50;9.10;99.90
19868;DHT22;10096;51.112;6.776;2023-11-21T05:31:18;9.20;99.90
19868;DHT22;10096;51.112;6.776;2023-11-21T05:33:45;9.30;1.00
19868;DHT22;10096;51.112;6.776;2023-11-21T05:36:12;9.30;99.90
19868;DHT22;10096;51.112;6.776;2023-11-21T05:38:39;9.30;99.90
19868;DHT22;10096;51.112;6.776;2023-11-21T05:41:10;9.40;99.90
19868;DHT22;10096;51.112;6.776;2023-11-21T05:43:39;9.50;1.00
19868;DHT22;10096;51.112;6.776;2023-11-21T05:46:09;9.40;1.00
19868;DHT22;10096;51.112;6.776;2023-11-21T05:48:41;9.20;99.90
19868;DHT22;10096;51.112;6.776;2023-11-21T05:51:08;9.60;1.00
19868;DHT22;10096;51.112;6.776;2023-11-21T05:53:38;9.60;1.00
19868;DHT22;10096;51.112;6.776;2023-11-21T05:56:05;9.30;99.90
19868;DHT22;10096;51.112;6.776;2023-11-21T05:58:39;9.50;99.90
19868;DHT22;10096;51.112;6.776;2023-11-21T06:01:06;9.50;99.90
19868;DHT22;10096;51.112;6.776;2023-11-21T06:03:34;9.40;99.90
19868;DHT22;10096;51.112;6.776;2023-11-21T06:06:03;9.40;54.10
19868;DHT22;10096;51.112;6.776;2023-11-21T06:08:31;9.40;91.60
19868;DHT22;10096;51.112;6.776;2023-11-21T06:10:58;9.40;99.90
19868;DHT22;10096;51.112;6.776;2023-11-21T06:13:25;9.50;1.00
19868;DHT22;10096;51.112;6.776;2023-11-21T06:15:53;9.40;99.90
19868;DHT22;10096;51.112;6.776;2023-11-21T06:18:20;9.60;99.90
19868;DHT22;10096;51.112;6.776;2023-11-21T06:20:54;9.50;99.90
19868;DHT22;10096;51.112;6.776;2023-11-21T06:23:22;9.50;99.90
19868;DHT22;10096;51.112;6.776;2023-11-21T06:25:49;9.60;1.00
19868;DHT22;10096;51.112;6.776;2023-11-21T06:28:16;9.70;99.90
19868;DHT22;10096;51.112;6.776;2023-11-21T06:30:44;9.70;99.90
19868;DHT22;10096;51.112;6.776;2023-11-21T06:33:11;9.90;99.90
19868;DHT22;10096;51.112;6.776;2023-11-21T06:35:39;9.70;99.90
19868;DHT22;10096;51.112;6.776;2023-11-21T06:38:06;9.70;1.00
19868;DHT22;10096;51.112;6.776;2023-11-21T06:40:36;9.80;1.00
19868;DHT22;10096;51.112;6.776;2023-11-21T06:43:04;9.90;99.90
19868;DHT22;10096;51.112;6.776;2023-11-21T06:45:33;9.90;99.90
19868;DHT22;10096;51.112;6.776;2023-11-21T06:48:05;10.00;1.00
19868;DHT22;10096;51.112;6.776;2023-11-21T06:50:39;10.10;1.00
19868;DHT22;10096;51.112;6.776;2023-11-21T06:53:11;10.00;1.00
19868;DHT22;10096;51.112;6.776;2023-11-21T06:55:40;10.10;1.00
19868;DHT22;10096;51.112;6.776;2023-11-21T06:58:07;10.10;1.00
19868;DHT22;10096;51.112;6.776;2023-11-21T07:00:34;10.10;1.00
19868;DHT22;10096;51.112;6.776;2023-11-21T07:03:01;10.00;1.00
19868;DHT22;10096;51.112;6.776;2023-11-21T07:05:28;10.10;1.00
19868;DHT22;10096;51.112;6.776;2023-11-21T07:07:55;10.10;1.00
19868;DHT22;10096;51.112;6.776;2023-11-21T07:10:25;10.00;1.00
19868;DHT22;10096;51.112;6.776;2023-11-21T07:12:54;10.20;1.00
19868;DHT22;10096;51.112;6.776;2023-11-21T07:15:22;10.20;1.00
19868;DHT22;10096;51.112;6.776;2023-11-21T07:17:51;10.20;1.00
19868;DHT22;10096;51.112;6.776;2023-11-21T07:20:19;10.20;1.00
19868;DHT22;10096;51.112;6.776;2023-11-21T07:22:47;10.20;1.00
19868;DHT22;10096;51.112;6.776;2023-11-21T07:25:15;10.20;1.00
19868;DHT22;10096;51.112;6.776;2023-11-21T07:27:47;10.40;99.90
19868;DHT22;10096;51.112;6.776;2023-11-21T07:30:18;10.30;99.90
19868;DHT22;10096;51.112;6.776;2023-11-21T07:32:48;10.50;99.90
19868;DHT22;10096;51.112;6.776;2023-11-21T07:35:17;10.30;99.90
19868;DHT22;10096;51.112;6.776;2023-11-21T07:37:50;10.30;99.90
19868;DHT22;10096;51.112;6.776;2023-11-21T07:40:20;10.00;99.90
19868;DHT22;10096;51.112;6.776;2023-11-21T07:42:50;10.60;99.90
19868;DHT22;10096;51.112;6.776;2023-11-21T07:45:19;10.30;99.90
19868;DHT22;10096;51.112;6.776;2023-11-21T07:47:47;10.30;99.90
19868;DHT22;10096;51.112;6.776;2023-11-21T07:50:20;10.20;99.90
19868;DHT22;10096;51.112;6.776;2023-11-21T07:52:48;10.20;99.90
19868;DHT22;10096;51.112;6.776;2023-11-21T07:55:16;10.00;99.90
19868;DHT22;10096;51.112;6.776;2023-11-21T07:57:43;10.20;99.90
19868;DHT22;10096;51.112;6.776;2023-11-21T08:00:11;10.20;99.90
19868;DHT22;10096;51.112;6.776;2023-11-21T08:02:42;10.20;99.90
19868;DHT22;10096;51.112;6.776;2023-11-21T08:05:13;10.30;99.90
19868;DHT22;10096;51.112;6.776;2023-11-21T08:07:41;10.60;1.00
19868;DHT22;10096;51.112;6.776;2023-11-21T08:10:09;10.40;99.90
19868;DHT22;10096;51.112;6.776;2023-11-21T08:12:36;10.40;99.90
19868;DHT22;10096;51.112;6.776;2023-11-21T08:15:05;10.40;99.90
19868;DHT22;10096;51.112;6.776;2023-11-21T08:17:33;10.50;99.90
19868;DHT22;10096;51.112;6.776;2023-11-21T08:20:02;10.30;99.90
19868;DHT22;10096;51.112;6.776;2023-11-21T08:22:31;10.50;1.00
19868;DHT22;10096;51.112;6.776;2023-11-21T08:25:00;10.40;99.90
19868;DHT22;10096;51.112;6.776;2023-11-21T08:27:32;10.50;99.90
19868;DHT22;10096;51.112;6.776;2023-11-21T08:30:02;10.70;99.90
19868;DHT22;10096;51.112;6.776;2023-11-21T08:32:29;10.50;99.90
19868;DHT22;10096;51.112;6.776;2023-11-21T08:34:57;10.20;99.90
19868;DHT22;10096;51.112;6.776;2023-11-21T08:37:26;10.80;99.90
19868;DHT22;10096;51.112;6.776;2023-11-21T08:39:58;10.60;99.90
19868;DHT22;10096;51.112;6.776;2023-11-21T08:42:30;10.80;99.90
19868;DHT22;10096;51.112;6.776;2023-11-21T08:44:57;10.80;99.90
19868;DHT22;10096;51.112;6.776;2023-11-21T08:47:24;10.90;99.90
19868;DHT22;10096;51.112;6.776;2023-11-21T08:49:52;10.80;99.90
19868;DHT22;10096;51.112;6.776;2023-11-21T08:52:19;10.90;99.90
19868;DHT22;10096;51.112;6.776;2023-11-21T08:54:50;11.10;99.90
19868;DHT22;10096;51.112;6.776;2023-11-21T08:57:21;11.10;99.90
19868;DHT22;10096;51.112;6.776;2023-11-21T08:59:48;11.00;99.90
19868;DHT22;10096;51.112;6.776;2023-11-21T09:02:23;11.10;99.90
19868;DHT22;10096;51.112;6.776;2023-11-21T09:04:55;11.10;55.70
19868;DHT22;10096;51.112;6.776;2023-11-21T09:07:29;11.30;53.50
19868;DHT22;10096;51.112;6.776;2023-11-21T09:10:14;11.10;54.20
19868;DHT22;10096;51.112;6.776;2023-11-21T09:12:41;11.20;65.30
19868;DHT22;10096;51.112;6.776;2023-11-21T09:15:09;11.10;38.50
19868;DHT22;10096;51.112;6.776;2023-11-21T09:17:37;10.90;42.90
19868;DHT22;10096;51.112;6.776;2023-11-21T09:20:06;11.20;1.00
19868;DHT22;10096;51.112;6.776;2023-11-21T09:22:35;11.20;3.60
19868;DHT22;10096;51.112;6.776;2023-11-21T09:25:02;11.10;44.40
19868;DHT22;10096;51.112;6.776;2023-11-21T09:27:32;11.20;99.90
19868;DHT22;10096;51.112;6.776;2023-11-21T09:29:59;11.40;99.20
19868;DHT22;10096;51.112;6.776;2023-11-21T09:32:27;11.20;73.90
19868;DHT22;10096;51.112;6.776;2023-11-21T09:34:54;11.30;1.00
19868;DHT22;10096;51.112;6.776;2023-11-21T09:37:23;11.20;1.00
19868;DHT22;10096;51.112;6.776;2023-11-21T09:39:52;11.10;1.00
19868;DHT22;10096;51.112;6.776;2023-11-21T09:42:25;11.00;99.90
19868;DHT22;10096;51.112;6.776;2023-11-21T09:45:08;11.10;99.90
19868;DHT22;10096;51.112;6.776;2023-11-21T09:47:42;11.00;99.90
19868;DHT22;10096;51.112;6.776;2023-11-21T09:50:14;11.20;99.90
19868;DHT22;10096;51.112;6.776;2023-11-21T09:52:52;11.20;99.90
19868;DHT22;10096;51.112;6.776;2023-11-21T09:55:24;11.50;97.90
19868;DHT22;10096;51.112;6.776;2023-11-21T09:57:56;11.50;99.90
19868;DHT22;10096;51.112;6.776;2023-11-21T10:00:27;11.40;88.50
19868;DHT22;10096;51.112;6.776;2023-11-21T10:02:55;11.30;99.90
19868;DHT22;10096;51.112;6.776;2023-11-21T10:05:22;11.30;81.70
19868;DHT22;10096;51.112;6.776;2023-11-21T10:07:50;11.30;99.90
19868;DHT22;10096;51.112;6.776;2023-11-21T10:10:19;11.10;99.90
19868;DHT22;10096;51.112;6.776;2023-11-21T10:12:50;11.40;30.10
19868;DHT22;10096;51.112;6.776;2023-11-21T10:15:21;11.60;3.10
19868;DHT22;10096;51.112;6.776;2023-11-21T10:18:03;11.70;1.00
19868;DHT22;10096;51.112;6.776;2023-11-21T10:20:32;11.80;1.00
19868;DHT22;10096;51.112;6.776;2023-11-21T10:23:00;11.70;1.00
19868;DHT22;10096;51.112;6.776;2023-11-21T10:25:29;11.80;1.00
19868;DHT22;10096;51.112;6.776;2023-11-21T10:27:58;11.70;1.00
19868;DHT22;10096;51.112;6.776;2023-11-21T10:30:32;11.90;1.00
19868;DHT22;10096;51.112;6.776;2023-11-21T10:33:10;11.80;1.00
19868;DHT22;10096;51.112;6.776;2023-11-21T10:35:45;11.50;1.00
19868;DHT22;10096;51.112;6.776;2023-11-21T10:38:16;11.90;1.00
19868;DHT22;10096;51.112;6.776;2023-11-21T10:40:44;11.80;1.00
19868;DHT22;10096;51.112;6.776;2023-11-21T10:43:15;11.70;1.00
19868;DHT22;10096;51.112;6.776;2023-11-21T10:45:42;11.70;1.00
19868;DHT22;10096;51.112;6.776;2023-11-21T10:48:14;11.80;1.00
19868;DHT22;10096;51.112;6.776;2023-11-21T10:50:41;12.00;1.00
19868;DHT22;10096;51.112;6.776;2023-11-21T10:53:13;11.90;1.00
19868;DHT22;10096;51.112;6.776;2023-11-21T10:55:43;11.80;1.00
19868;DHT22;10096;51.112;6.776;2023-11-21T10:58:14;11.90;1.00
19868;DHT22;10096;51.112;6.776;2023-11-21T11:00:41;12.00;1.00
19868;DHT22;10096;51.112;6.776;2023-11-21T11:03:12;12.10;1.00
19868;DHT22;10096;51.112;6.776;2023-11-21T11:05:41;12.00;1.00
19868;DHT22;10096;51.112;6.776;2023-11-21T11:08:12;12.10;1.00
19868;DHT22;10096;51.112;6.776;2023-11-21T11:10:44;12.10;1.00
19868;DHT22;10096;51.112;6.776;2023-11-21T11:13:13;12.10;1.00
19868;DHT22;10096;51.112;6.776;2023-11-21T11:15:42;12.40;1.00
19868;DHT22;10096;51.112;6.776;2023-11-21T11:18:11;12.50;1.00
19868;DHT22;10096;51.112;6.776;2023-11-21T11:20:44;12.30;1.00
19868;DHT22;10096;51.112;6.776;2023-11-21T11:23:35;12.20;1.00
19868;DHT22;10096;51.112;6.776;2023-11-21T11:26:15;12.40;1.00
19868;DHT22;10096;51.112;6.776;2023-11-21T11:28:56;12.40;1.00
19868;DHT22;10096;51.112;6.776;2023-11-21T11:31:31;12.40;1.00
19868;DHT22;10096;51.112;6.776;2023-11-21T11:34:22;12.40;1.00
19868;DHT22;10096;51.112;6.776;2023-11-21T11:36:57;12.40;1.00
19868;DHT22;10096;51.112;6.776;2023-11-21T11:39:28;12.50;1.00
19868;DHT22;10096;51.112;6.776;2023-11-21T11:41:56;12.60;1.00
19868;DHT22;10096;51.112;6.776;2023-11-21T11:44:50;12.50;1.00
19868;DHT22;10096;51.112;6.776;2023-11-21T11:47:21;12.30;1.00
19868;DHT22;10096;51.112;6.776;2023-11-21T11:50:02;12.30;1.00
19868;DHT22;10096;51.112;6.776;2023-11-21T11:52:49;12.30;1.00
19868;DHT22;10096;51.112;6.776;2023-11-21T11:55:20;12.30;1.00
19868;DHT22;10096;51.112;6.776;2023-11-21T11:57:49;12.10;1.00
19868;DHT22;10096;51.112;6.776;2023-11-21T12:00:21;12.20;1.00
19868;DHT22;10096;51.112;6.776;2023-11-21T12:02:51;12.00;1.00
19868;DHT22;10096;51.112;6.776;2023-11-21T12:05:20;12.00;1.00
19868;DHT22;10096;51.112;6.776;2023-11-21T12:07:54;12.10;1.00
19868;DHT22;10096;51.112;6.776;2023-11-21T12:10:23;12.10;1.00
19868;DHT22;10096;51.112;6.776;2023-11-21T12:12:52;12.20;1.00
19868;DHT22;10096;51.112;6.776;2023-11-21T12:15:20;12.30;1.00
19868;DHT22;10096;51.112;6.776;2023-11-21T12:17:47;12.10;1.00
19868;DHT22;10096;51.112;6.776;2023-11-21T12:20:18;12.10;1.00
19868;DHT22;10096;51.112;6.776;2023-11-21T12:23:00;12.10;1.00
19868;DHT22;10096;51.112;6.776;2023-11-21T12:25:36;12.30;1.00
19868;DHT22;10096;51.112;6.776;2023-11-21T12:28:05;12.60;1.00
19868;DHT22;10096;51.112;6.776;2023-11-21T12:30:33;12.60;1.00
19868;DHT22;10096;51.112;6.776;2023-11-21T12:33:01;12.60;1.00
19868;DHT22;10096;51.112;6.776;2023-11-21T12:35:30;12.50;1.00
19868;DHT22;10096;51.112;6.776;2023-11-21T12:38:01;12.60;1.00
19868;DHT22;10096;51.112;6.776;2023-11-21T12:40:29;12.60;1.00
19868;DHT22;10096;51.112;6.776;2023-11-21T12:42:57;12.60;1.00
19868;DHT22;10096;51.112;6.776;2023-11-21T12:45:28;12.50;1.00
19868;DHT22;10096;51.112;6.776;2023-11-21T12:47:59;12.40;1.00
19868;DHT22;10096;51.112;6.776;2023-11-21T12:50:29;12.40;1.00
19868;DHT22;10096;51.112;6.776;2023-11-21T12:53:02;12.50;1.00
19868;DHT22;10096;51.112;6.776;2023-11-21T12:55:31;12.60;1.00
19868;DHT22;10096;51.112;6.776;2023-11-21T12:58:05;12.70;1.00
19868;DHT22;10096;51.112;6.776;2023-11-21T13:00:35;12.80;1.00
19868;DHT22;10096;51.112;6.776;2023-11-21T13:03:04;12.70;1.00
19868;DHT22;10096;51.112;6.776;2023-11-21T13:05:35;12.70;1.00
19868;DHT22;10096;51.112;6.776;2023-11-21T13:08:08;12.70;1.00
19868;DHT22;10096;51.112;6.776;2023-11-21T13:10:39;12.90;1.00
19868;DHT22;10096;51.112;6.776;2023-11-21T13:13:09;12.90;1.00
19868;DHT22;10096;51.112;6.776;2023-11-21T13:15:48;13.20;1.00
19868;DHT22;10096;51.112;6.776;2023-11-21T13:18:16;13.10;1.00
19868;DHT22;10096;51.112;6.776;2023-11-21T13:20:44;13.20;1.00
19868;DHT22;10096;51.112;6.776;2023-11-21T13:23:13;13.00;99.90
19868;DHT22;10096;51.112;6.776;2023-11-21T13:25:42;12.90;1.00
19868;DHT22;10096;51.112;6.776;2023-11-21T13:28:11;12.80;1.00
19868;DHT22;10096;51.112;6.776;2023-11-21T13:30:41;12.80;1.00
19868;DHT22;10096;51.112;6.776;2023-11-21T13:33:10;12.70;1.00
19868;DHT22;10096;51.112;6.776;2023-11-21T13:35:52;12.70;1.00
19868;DHT22;10096;51.112;6.776;2023-11-21T13:38:23;12.60;1.00
19868;DHT22;10096;51.112;6.776;2023-11-21T13:40:51;12.60;1.00
19868;DHT22;10096;51.112;6.776;2023-11-21T13:43:21;12.40;1.00
19868;DHT22;10096;51.112;6.776;2023-11-21T13:45:50;12.40;1.00
19868;DHT22;10096;51.112;6.776;2023-11-21T13:48:27;12.40;1.00
19868;DHT22;10096;51.112;6.776;2023-11-21T13:50:59;12.50;1.00
19868;DHT22;10096;51.112;6.776;2023-11-21T13:53:44;12.40;1.00
19868;DHT22;10096;51.112;6.776;2023-11-21T13:56:13;12.40;1.00
19868;DHT22;10096;51.112;6.776;2023-11-21T13:58:45;12.50;1.00
19868;DHT22;10096;51.112;6.776;2023-11-21T14:01:22;12.60;1.00
19868;DHT22;10096;51.112;6.776;2023-11-21T14:04:10;12.50;1.00
19868;DHT22;10096;51.112;6.776;2023-11-21T14:06:45;12.60;1.00
19868;DHT22;10096;51.112;6.776;2023-11-21T14:09:18;12.60;1.00
19868;DHT22;10096;51.112;6.776;2023-11-21T14:11:50;12.60;1.00
19868;DHT22;10096;51.112;6.776;2023-11-21T14:14:19;12.60;1.00
19868;DHT22;10096;51.112;6.776;2023-11-21T14:16:48;12.60;1.00
19868;DHT22;10096;51.112;6.776;2023-11-21T14:19:16;12.60;1.00
19868;DHT22;10096;51.112;6.776;2023-11-21T14:21:44;12.60;1.00
19868;DHT22;10096;51.112;6.776;2023-11-21T14:24:15;12.60;1.00
19868;DHT22;10096;51.112;6.776;2023-11-21T14:26:44;12.60;1.00
19868;DHT22;10096;51.112;6.776;2023-11-21T14:29:12;12.50;1.00
19868;DHT22;10096;51.112;6.776;2023-11-21T14:31:41;12.50;1.00
19868;DHT22;10096;51.112;6.776;2023-11-21T14:34:09;12.40;1.00
19868;DHT22;10096;51.112;6.776;2023-11-21T14:36:39;12.40;1.00
19868;DHT22;10096;51.112;6.776;2023-11-21T14:39:06;12.40;1.00
19868;DHT22;10096;51.112;6.776;2023-11-21T14:41:41;12.30;1.00
19868;DHT22;10096;51.112;6.776;2023-11-21T14:44:10;12.30;1.00
19868;DHT22;10096;51.112;6.776;2023-11-21T14:46:40;12.30;1.00
19868;DHT22;10096;51.112;6.776;2023-11-21T14:49:11;12.20;1.00
19868;DHT22;10096;51.112;6.776;2023-11-21T14:51:46;12.20;1.00
19868;DHT22;10096;51.112;6.776;2023-11-21T14:54:26;12.20;1.00
19868;DHT22;10096;51.112;6.776;2023-11-21T14:57:10;11.80;1.00
19868;DHT22;10096;51.112;6.776;2023-11-21T14:59:42;11.70;74.10
19868;DHT22;10096;51.112;6.776;2023-11-21T15:02:16;11.40;99.90
19868;DHT22;10096;51.112;6.776;2023-11-21T15:04:46;11.60;99.90
19868;DHT22;10096;51.112;6.776;2023-11-21T15:07:14;11.50;99.90
19868;DHT22;10096;51.112;6.776;2023-11-21T15:09:42;11.50;99.90
19868;DHT22;10096;51.112;6.776;2023-11-21T15:12:12;11.70;99.90
19868;DHT22;10096;51.112;6.776;2023-11-21T15:14:43;11.50;99.90
19868;DHT22;10096;51.112;6.776;2023-11-21T15:17:13;11.60;99.90
19868;DHT22;10096;51.112;6.776;2023-11-21T15:19:45;11.30;99.90
19868;DHT22;10096;51.112;6.776;2023-11-21T15:22:19;11.50;99.90
19868;DHT22;10096;51.112;6.776;2023-11-21T15:24:53;11.30;99.90
19868;DHT22;10096;51.112;6.776;2023-11-21T15:27:23;11.30;99.90
19868;DHT22;10096;51.112;6.776;2023-11-21T15:29:50;11.30;76.60
19868;DHT22;10096;51.112;6.776;2023-11-21T15:32:19;11.20;91.40
19868;DHT22;10096;51.112;6.776;2023-11-21T15:34:49;11.20;36.80
19868;DHT22;10096;51.112;6.776;2023-11-21T15:37:19;11.10;39.90
19868;DHT22;10096;51.112;6.776;2023-11-21T15:42:36;11.10;79.00
19868;DHT22;10096;51.112;6.776;2023-11-21T15:45:06;11.20;74.70
19868;DHT22;10096;51.112;6.776;2023-11-21T15:47:35;11.20;55.20
19868;DHT22;10096;51.112;6.776;2023-11-21T15:50:02;11.10;64.30
19868;DHT22;10096;51.112;6.776;2023-11-21T15:52:34;11.20;63.50
19868;DHT22;10096;51.112;6.776;2023-11-21T15:55:01;11.40;76.60
19868;DHT22;10096;51.112;6.776;2023-11-21T15:57:59;11.20;68.10
19868;DHT22;10096;51.112;6.776;2023-11-21T16:00:30;11.20;35.00
19868;DHT22;10096;51.112;6.776;2023-11-21T16:03:00;11.30;32.40
19868;DHT22;10096;51.112;6.776;2023-11-21T16:05:33;11.20;62.20